Time,TemperatureF,DewpointF,PressureIn,WindDirection,WindDirectionDegrees,WindSpeedMPH,WindSpeedGustMPH,Humidity,HourlyPrecipIn,Conditions,Clouds,dailyrainin,SoftwareType,DateUTC
2013-01-08 00:00:00,28.6,24.4,30.45,West,263,0.0,0.0,84,0.00,,,0.00,meteohub,2013-01-08 05:00:00,
2013-01-08 00:02:00,28.2,24.3,30.45,NNE,13,0.0,0.0,85,0.00,,,0.00,meteohub,2013-01-08 05:02:00,
2013-01-08 00:03:00,28.2,24.3,30.45,NNE,15,0.0,0.0,85,0.00,,,0.00,meteohub,2013-01-08 05:03:00,
2013-01-08 00:08:00,27.9,24.3,30.45,West,278,0.0,1.0,86,0.00,,,0.00,meteohub,2013-01-08 05:08:00,
2013-01-08 00:13:00,27.9,24.4,30.45,West,278,0.0,1.0,87,0.00,,,0.00,meteohub,2013-01-08 05:13:00,
2013-01-08 00:18:00,28.0,24.6,30.45,West,278,0.0,1.0,87,0.00,,,0.00,meteohub,2013-01-08 05:18:00,
2013-01-08 00:23:00,28.2,24.6,30.44,West,278,0.0,0.0,86,0.00,,,0.00,meteohub,2013-01-08 05:23:00,
2013-01-08 00:28:00,28.0,24.4,30.44,West,278,0.0,0.0,86,0.00,,,0.00,meteohub,2013-01-08 05:28:00,
2013-01-08 00:33:00,28.0,24.6,30.44,West,278,0.0,0.0,87,0.00,,,0.00,meteohub,2013-01-08 05:33:00,
2013-01-08 00:38:00,28.2,24.8,30.44,West,278,0.0,0.0,87,0.00,,,0.00,meteohub,2013-01-08 05:38:00,
2013-01-08 00:43:00,28.4,25.0,30.44,West,278,0.0,0.0,87,0.00,,,0.00,meteohub,2013-01-08 05:43:00,
2013-01-08 00:48:00,28.6,25.2,30.44,West,278,0.0,0.0,87,0.00,,,0.00,meteohub,2013-01-08 05:48:00,
2013-01-08 00:53:00,28.6,25.2,30.44,West,278,0.0,0.0,87,0.00,,,0.00,meteohub,2013-01-08 05:53:00,
2013-01-08 00:58:00,28.6,25.2,30.44,West,278,0.0,0.0,87,0.00,,,0.00,meteohub,2013-01-08 05:58:00,
2013-01-08 01:03:00,28.6,25.2,30.44,West,278,0.0,0.0,87,0.00,,,0.00,meteohub,2013-01-08 06:03:00,
2013-01-08 01:08:00,28.4,25.0,30.44,West,278,0.0,0.0,87,0.00,,,0.00,meteohub,2013-01-08 06:08:00,
2013-01-08 01:13:00,28.2,24.8,30.44,West,278,0.0,0.0,87,0.00,,,0.00,meteohub,2013-01-08 06:13:00,
2013-01-08 01:18:00,27.9,24.4,30.44,West,278,0.0,0.0,87,0.00,,,0.00,meteohub,2013-01-08 06:18:00,
2013-01-08 01:23:00,27.3,24.3,30.44,West,278,0.0,0.0,88,0.00,,,0.00,meteohub,2013-01-08 06:23:00,
2013-01-08 01:28:00,27.1,24.3,30.44,West,278,0.0,0.0,89,0.00,,,0.00,meteohub,2013-01-08 06:28:00,
2013-01-08 01:33:00,27.3,24.8,30.44,West,278,0.0,0.0,90,0.00,,,0.00,meteohub,2013-01-08 06:33:00,
2013-01-08 01:38:00,27.3,24.4,30.44,West,278,0.0,0.0,89,0.00,,,0.00,meteohub,2013-01-08 06:38:00,
2013-01-08 01:44:00,27.3,24.8,30.44,West,278,0.0,0.0,90,0.00,,,0.00,meteohub,2013-01-08 06:44:00,
2013-01-08 01:49:00,27.7,25.2,30.44,West,278,0.0,0.0,90,0.00,,,0.00,meteohub,2013-01-08 06:49:00,
2013-01-08 01:54:00,27.9,25.3,30.44,West,278,0.0,0.0,90,0.00,,,0.00,meteohub,2013-01-08 06:54:00,
2013-01-08 01:59:00,28.0,25.2,30.44,West,278,0.0,0.0,89,0.00,,,0.00,meteohub,2013-01-08 06:59:00,
2013-01-08 02:04:00,27.9,25.0,30.44,West,278,0.0,0.0,89,0.00,,,0.00,meteohub,2013-01-08 07:04:00,
2013-01-08 02:09:00,27.7,24.8,30.44,West,278,0.0,0.0,89,0.00,,,0.00,meteohub,2013-01-08 07:09:00,
2013-01-08 02:14:00,27.5,24.6,30.44,West,278,0.0,0.0,89,0.00,,,0.00,meteohub,2013-01-08 07:14:00,
2013-01-08 02:19:00,27.3,24.8,30.43,West,278,0.0,0.0,90,0.00,,,0.00,meteohub,2013-01-08 07:19:00,
2013-01-08 02:24:00,27.3,24.8,30.44,West,278,0.0,0.0,90,0.00,,,0.00,meteohub,2013-01-08 07:24:00,
2013-01-08 02:29:00,27.3,24.8,30.43,West,278,0.0,0.0,90,0.00,,,0.00,meteohub,2013-01-08 07:29:00,
2013-01-08 02:34:00,27.5,25.0,30.43,West,278,0.0,0.0,90,0.00,,,0.00,meteohub,2013-01-08 07:34:00,
2013-01-08 02:39:00,27.9,25.5,30.44,West,278,0.0,0.0,91,0.00,,,0.00,meteohub,2013-01-08 07:39:00,
2013-01-08 02:44:00,27.9,25.3,30.44,West,278,0.0,0.0,90,0.00,,,0.00,meteohub,2013-01-08 07:44:00,
2013-01-08 02:49:00,27.7,25.2,30.43,WNW,293,0.0,0.0,90,0.00,,,0.00,meteohub,2013-01-08 07:49:00,
2013-01-08 02:54:00,27.1,24.6,30.43,NNW,346,0.0,0.0,90,0.00,,,0.00,meteohub,2013-01-08 07:54:00,
2013-01-08 02:59:00,26.8,24.3,30.43,NNW,345,0.0,0.0,90,0.00,,,0.00,meteohub,2013-01-08 07:59:00,
2013-01-08 03:04:00,26.8,24.4,30.44,NW,305,0.0,0.0,91,0.00,,,0.00,meteohub,2013-01-08 08:04:00,
2013-01-08 03:09:00,27.0,25.0,30.44,West,269,0.0,1.0,92,0.00,,,0.00,meteohub,2013-01-08 08:09:00,
2013-01-08 03:14:00,27.3,25.3,30.43,West,269,0.0,1.0,92,0.00,,,0.00,meteohub,2013-01-08 08:14:00,
2013-01-08 03:19:00,27.3,25.0,30.43,West,269,0.0,1.0,91,0.00,,,0.00,meteohub,2013-01-08 08:19:00,
2013-01-08 03:24:00,27.0,24.4,30.43,West,269,0.0,0.0,90,0.00,,,0.00,meteohub,2013-01-08 08:24:00,
2013-01-08 03:29:00,26.8,24.8,30.43,West,269,0.0,0.0,92,0.00,,,0.00,meteohub,2013-01-08 08:29:00,
2013-01-08 03:34:00,27.0,25.0,30.43,West,269,0.0,0.0,92,0.00,,,0.00,meteohub,2013-01-08 08:34:00,
2013-01-08 03:39:00,27.0,25.0,30.43,West,269,0.0,0.0,92,0.00,,,0.00,meteohub,2013-01-08 08:39:00,
2013-01-08 03:44:00,27.0,24.6,30.43,West,269,0.0,0.0,91,0.00,,,0.00,meteohub,2013-01-08 08:44:00,
2013-01-08 03:49:00,26.6,24.3,30.43,West,269,0.0,0.0,91,0.00,,,0.00,meteohub,2013-01-08 08:49:00,
2013-01-08 03:54:00,26.2,24.3,30.43,West,269,0.0,0.0,92,0.00,,,0.00,meteohub,2013-01-08 08:54:00,
2013-01-08 03:59:00,26.2,24.4,30.42,West,269,0.0,0.0,93,0.00,,,0.00,meteohub,2013-01-08 08:59:00,
2013-01-08 04:04:00,26.4,24.6,30.43,West,269,0.0,0.0,93,0.00,,,0.00,meteohub,2013-01-08 09:04:00,
2013-01-08 04:09:00,26.8,25.0,30.43,West,269,0.0,0.0,93,0.00,,,0.00,meteohub,2013-01-08 09:09:00,
2013-01-08 04:14:00,27.0,25.2,30.43,West,269,0.0,0.0,93,0.00,,,0.00,meteohub,2013-01-08 09:14:00,
2013-01-08 04:20:00,27.0,25.0,30.43,West,269,0.0,0.0,92,0.00,,,0.00,meteohub,2013-01-08 09:20:00,
2013-01-08 04:25:00,26.6,24.6,30.42,West,269,0.0,0.0,92,0.00,,,0.00,meteohub,2013-01-08 09:25:00,
2013-01-08 04:30:00,26.4,24.4,30.42,West,269,0.0,0.0,92,0.00,,,0.00,meteohub,2013-01-08 09:30:00,
2013-01-08 04:35:00,26.4,24.4,30.42,West,269,0.0,0.0,92,0.00,,,0.00,meteohub,2013-01-08 09:35:00,
2013-01-08 04:40:00,26.2,24.3,30.41,West,269,0.0,0.0,92,0.00,,,0.00,meteohub,2013-01-08 09:40:00,
2013-01-08 04:45:00,26.1,24.1,30.41,West,269,0.0,0.0,92,0.00,,,0.00,meteohub,2013-01-08 09:45:00,
2013-01-08 04:50:00,26.1,24.3,30.42,West,269,0.0,0.0,93,0.00,,,0.00,meteohub,2013-01-08 09:50:00,
2013-01-08 04:55:00,26.2,24.4,30.42,West,269,0.0,0.0,93,0.00,,,0.00,meteohub,2013-01-08 09:55:00,
2013-01-08 05:00:00,26.4,25.0,30.42,West,269,0.0,0.0,94,0.00,,,0.00,meteohub,2013-01-08 10:00:00,
2013-01-08 05:05:00,26.6,24.8,30.42,West,269,0.0,0.0,93,0.00,,,0.00,meteohub,2013-01-08 10:05:00,
2013-01-08 05:10:00,26.8,25.0,30.42,West,269,0.0,0.0,93,0.00,,,0.00,meteohub,2013-01-08 10:10:00,
2013-01-08 05:15:00,26.8,25.0,30.43,West,269,0.0,0.0,93,0.00,,,0.00,meteohub,2013-01-08 10:15:00,
2013-01-08 05:20:00,26.6,24.8,30.43,West,269,0.0,0.0,93,0.00,,,0.00,meteohub,2013-01-08 10:20:00,
2013-01-08 05:25:00,27.0,25.5,30.43,West,269,0.0,0.0,94,0.00,,,0.00,meteohub,2013-01-08 10:25:00,
2013-01-08 05:30:00,27.0,25.2,30.43,West,269,0.0,0.0,93,0.00,,,0.00,meteohub,2013-01-08 10:30:00,
2013-01-08 05:35:00,26.8,24.8,30.43,West,269,0.0,0.0,92,0.00,,,0.00,meteohub,2013-01-08 10:35:00,
2013-01-08 05:40:00,26.2,23.9,30.43,West,269,0.0,0.0,91,0.00,,,0.00,meteohub,2013-01-08 10:40:00,
2013-01-08 05:45:00,25.9,23.5,30.43,West,269,0.0,0.0,91,0.00,,,0.00,meteohub,2013-01-08 10:45:00,
2013-01-08 05:50:00,25.5,23.5,30.43,West,269,0.0,0.0,92,0.00,,,0.00,meteohub,2013-01-08 10:50:00,
2013-01-08 05:55:00,25.7,23.9,30.43,West,269,0.0,0.0,93,0.00,,,0.00,meteohub,2013-01-08 10:55:00,
2013-01-08 06:02:00,25.9,24.1,30.43,West,269,0.0,0.0,93,0.00,,,0.00,meteohub,2013-01-08 11:02:00,
2013-01-08 06:07:00,25.9,24.1,30.43,West,269,0.0,0.0,93,0.00,,,0.00,meteohub,2013-01-08 11:07:00,
2013-01-08 06:12:00,25.9,24.4,30.43,West,269,0.0,0.0,94,0.00,,,0.00,meteohub,2013-01-08 11:12:00,
2013-01-08 06:17:00,26.1,24.6,30.44,West,269,0.0,0.0,94,0.00,,,0.00,meteohub,2013-01-08 11:17:00,
2013-01-08 06:22:00,26.1,24.6,30.44,West,269,0.0,0.0,94,0.00,,,0.00,meteohub,2013-01-08 11:22:00,
2013-01-08 06:27:00,26.2,24.8,30.44,West,269,0.0,0.0,94,0.00,,,0.00,meteohub,2013-01-08 11:27:00,
2013-01-08 06:32:00,26.4,25.0,30.44,West,269,0.0,0.0,94,0.00,,,0.00,meteohub,2013-01-08 11:32:00,
2013-01-08 06:37:00,26.8,25.3,30.44,West,269,0.0,0.0,94,0.00,,,0.00,meteohub,2013-01-08 11:37:00,
2013-01-08 06:42:00,26.8,25.3,30.45,West,269,0.0,0.0,94,0.00,,,0.00,meteohub,2013-01-08 11:42:00,
2013-01-08 06:47:00,27.0,25.5,30.45,West,269,0.0,0.0,94,0.00,,,0.00,meteohub,2013-01-08 11:47:00,
2013-01-08 06:52:00,27.0,25.5,30.44,West,269,0.0,0.0,94,0.00,,,0.00,meteohub,2013-01-08 11:52:00,
2013-01-08 06:57:00,26.8,25.0,30.45,West,269,0.0,0.0,93,0.00,,,0.00,meteohub,2013-01-08 11:57:00,
2013-01-08 07:02:00,26.6,24.8,30.45,West,269,0.0,0.0,93,0.00,,,0.00,meteohub,2013-01-08 12:02:00,
2013-01-08 07:07:00,26.4,24.6,30.45,West,269,0.0,0.0,93,0.00,,,0.00,meteohub,2013-01-08 12:07:00,
2013-01-08 07:12:00,26.2,24.4,30.45,West,269,0.0,0.0,93,0.00,,,0.00,meteohub,2013-01-08 12:12:00,
2013-01-08 07:17:00,26.4,25.0,30.45,West,269,0.0,0.0,94,0.00,,,0.00,meteohub,2013-01-08 12:17:00,
2013-01-08 07:22:00,26.6,25.2,30.45,West,269,0.0,0.0,94,0.00,,,0.00,meteohub,2013-01-08 12:22:00,
2013-01-08 07:27:00,26.8,25.3,30.45,West,269,0.0,0.0,94,0.00,,,0.00,meteohub,2013-01-08 12:27:00,
2013-01-08 07:32:00,27.3,26.1,30.45,West,269,0.0,0.0,95,0.00,,,0.00,meteohub,2013-01-08 12:32:00,
2013-01-08 07:37:00,27.7,26.2,30.45,West,269,0.0,0.0,94,0.00,,,0.00,meteohub,2013-01-08 12:37:00,
2013-01-08 07:42:00,27.9,26.4,30.45,West,269,0.0,0.0,94,0.00,,,0.00,meteohub,2013-01-08 12:42:00,
2013-01-08 07:47:00,28.0,26.6,30.45,West,269,0.0,0.0,94,0.00,,,0.00,meteohub,2013-01-08 12:47:00,
2013-01-08 07:52:00,28.2,26.8,30.45,West,269,0.0,0.0,94,0.00,,,0.00,meteohub,2013-01-08 12:52:00,
2013-01-08 07:57:00,28.6,27.1,30.46,West,269,0.0,0.0,94,0.00,,,0.00,meteohub,2013-01-08 12:57:00,
2013-01-08 08:02:00,28.9,27.5,30.47,West,269,0.0,0.0,94,0.00,,,0.00,meteohub,2013-01-08 13:02:00,
2013-01-08 08:07:00,29.3,27.5,30.47,West,269,0.0,0.0,93,0.00,,,0.00,meteohub,2013-01-08 13:07:00,
2013-01-08 08:12:00,29.5,27.5,30.47,West,269,0.0,0.0,92,0.00,,,0.00,meteohub,2013-01-08 13:12:00,
2013-01-08 08:17:00,29.5,27.5,30.47,West,269,0.0,0.0,92,0.00,,,0.00,meteohub,2013-01-08 13:17:00,
2013-01-08 08:22:00,29.3,27.3,30.47,West,269,0.0,0.0,92,0.00,,,0.00,meteohub,2013-01-08 13:22:00,
2013-01-08 08:27:00,29.7,27.9,30.48,West,269,0.0,0.0,93,0.00,,,0.00,meteohub,2013-01-08 13:27:00,
2013-01-08 08:32:00,29.8,28.0,30.48,West,269,0.0,0.0,93,0.00,,,0.00,meteohub,2013-01-08 13:32:00,
2013-01-08 08:37:00,30.0,28.2,30.48,West,269,0.0,0.0,93,0.00,,,0.00,meteohub,2013-01-08 13:37:00,
2013-01-08 08:42:00,30.6,28.6,30.48,West,269,0.0,0.0,92,0.00,,,0.00,meteohub,2013-01-08 13:42:00,
2013-01-08 08:47:00,30.7,28.4,30.48,West,269,0.0,0.0,91,0.00,,,0.00,meteohub,2013-01-08 13:47:00,
2013-01-08 08:52:00,31.1,28.8,30.48,West,269,0.0,0.0,91,0.00,,,0.00,meteohub,2013-01-08 13:52:00,
2013-01-08 08:57:00,31.3,28.8,30.48,West,269,0.0,0.0,90,0.00,,,0.00,meteohub,2013-01-08 13:57:00,
2013-01-08 09:02:00,31.6,29.1,30.48,West,269,0.0,0.0,90,0.00,,,0.00,meteohub,2013-01-08 14:02:00,
2013-01-08 09:07:00,32.0,29.5,30.48,West,269,0.0,0.0,90,0.00,,,0.00,meteohub,2013-01-08 14:07:00,
2013-01-08 09:12:00,32.4,29.8,30.49,West,269,0.0,0.0,90,0.00,,,0.00,meteohub,2013-01-08 14:12:00,
2013-01-08 09:17:00,32.9,30.0,30.48,West,269,0.0,0.0,89,0.00,,,0.00,meteohub,2013-01-08 14:17:00,
2013-01-08 09:22:00,33.3,30.4,30.48,West,269,0.0,0.0,89,0.00,,,0.00,meteohub,2013-01-08 14:22:00,
2013-01-08 09:27:00,33.6,30.4,30.48,West,269,0.0,0.0,88,0.00,,,0.00,meteohub,2013-01-08 14:27:00,
2013-01-08 09:32:00,34.2,30.9,30.48,West,268,0.0,0.0,88,0.00,,,0.00,meteohub,2013-01-08 14:32:00,
2013-01-08 09:37:00,34.7,31.3,30.48,West,269,0.0,0.0,87,0.00,,,0.00,meteohub,2013-01-08 14:37:00,
2013-01-08 09:42:00,35.4,31.6,30.49,West,269,0.0,0.0,86,0.00,,,0.00,meteohub,2013-01-08 14:42:00,
2013-01-08 09:47:00,36.1,31.5,30.49,West,264,0.0,0.0,83,0.00,,,0.00,meteohub,2013-01-08 14:47:00,
2013-01-08 09:52:00,36.9,32.2,30.49,West,264,0.0,0.0,83,0.00,,,0.00,meteohub,2013-01-08 14:52:00,
2013-01-08 09:57:00,37.6,32.0,30.49,West,264,0.0,0.0,80,0.00,,,0.00,meteohub,2013-01-08 14:57:00,
2013-01-08 10:02:00,38.1,32.7,30.49,West,264,0.0,0.0,81,0.00,,,0.00,meteohub,2013-01-08 15:02:00,
2013-01-08 10:07:00,38.5,33.8,30.50,West,264,0.0,1.0,83,0.00,,,0.00,meteohub,2013-01-08 15:07:00,
2013-01-08 10:12:00,38.8,33.8,30.50,North,8,0.0,1.0,82,0.00,,,0.00,meteohub,2013-01-08 15:12:00,
2013-01-08 10:18:00,39.0,32.7,30.50,North,7,0.0,1.0,78,0.00,,,0.00,meteohub,2013-01-08 15:18:00,
2013-01-08 10:23:00,39.6,33.3,30.50,North,8,0.0,0.0,78,0.00,,,0.00,meteohub,2013-01-08 15:23:00,
2013-01-08 10:28:00,40.1,34.5,30.50,WNW,302,0.0,0.0,80,0.00,,,0.00,meteohub,2013-01-08 15:28:00,
2013-01-08 10:33:00,40.5,34.7,30.50,NNW,334,0.0,0.0,80,0.00,,,0.00,meteohub,2013-01-08 15:33:00,
2013-01-08 10:38:00,40.8,35.4,30.50,NNW,338,0.0,0.0,81,0.00,,,0.00,meteohub,2013-01-08 15:38:00,
2013-01-08 10:43:00,41.2,36.5,30.50,North,0,0.0,1.0,83,0.00,,,0.00,meteohub,2013-01-08 15:43:00,
2013-01-08 10:48:00,41.4,35.4,30.50,North,0,0.0,1.0,79,0.00,,,0.00,meteohub,2013-01-08 15:48:00,
2013-01-08 10:53:00,41.5,34.2,30.50,North,0,0.0,1.0,75,0.00,,,0.00,meteohub,2013-01-08 15:53:00,
2013-01-08 10:58:00,42.1,35.1,30.50,SSW,203,1.0,1.0,76,0.00,,,0.00,meteohub,2013-01-08 15:58:00,
2013-01-08 11:03:00,42.6,35.2,30.49,WSW,253,0.0,1.0,75,0.00,,,0.00,meteohub,2013-01-08 16:03:00,
2013-01-08 11:08:00,43.2,35.8,30.50,West,261,0.0,2.0,75,0.00,,,0.00,meteohub,2013-01-08 16:08:00,
2013-01-08 11:13:00,43.5,35.8,30.49,SW,231,0.0,2.0,74,0.00,,,0.00,meteohub,2013-01-08 16:13:00,
2013-01-08 11:18:00,44.1,36.0,30.49,West,274,0.0,2.0,73,0.00,,,0.00,meteohub,2013-01-08 16:18:00,
2013-01-08 11:23:00,44.2,36.1,30.49,SW,231,0.0,2.0,73,0.00,,,0.00,meteohub,2013-01-08 16:23:00,
2013-01-08 11:28:00,44.4,36.7,30.48,WSW,242,0.0,3.0,74,0.00,,,0.00,meteohub,2013-01-08 16:28:00,
2013-01-08 11:33:00,44.8,36.7,30.48,WSW,240,0.0,3.0,73,0.00,,,0.00,meteohub,2013-01-08 16:33:00,
2013-01-08 11:38:00,45.1,37.0,30.48,WSW,257,0.0,3.0,73,0.00,,,0.00,meteohub,2013-01-08 16:38:00,
2013-01-08 11:43:00,45.3,36.9,30.48,WSW,246,0.0,2.0,72,0.00,,,0.00,meteohub,2013-01-08 16:43:00,
2013-01-08 11:48:00,45.7,37.6,30.48,West,281,0.0,1.0,73,0.00,,,0.00,meteohub,2013-01-08 16:48:00,
2013-01-08 11:53:00,45.7,37.6,30.47,WSW,249,1.0,2.0,73,0.00,,,0.00,meteohub,2013-01-08 16:53:00,
2013-01-08 11:58:00,45.9,37.8,30.47,WNW,288,0.0,3.0,73,0.00,,,0.00,meteohub,2013-01-08 16:58:00,
2013-01-08 12:03:00,45.9,37.8,30.47,WSW,252,0.0,3.0,73,0.00,,,0.00,meteohub,2013-01-08 17:03:00,
2013-01-08 12:08:00,45.9,37.4,30.47,West,262,3.0,3.0,72,0.00,,,0.00,meteohub,2013-01-08 17:08:00,
2013-01-08 12:13:00,45.7,37.6,30.46,WSW,243,1.0,3.0,73,0.00,,,0.00,meteohub,2013-01-08 17:13:00,
2013-01-08 12:18:00,45.7,37.6,30.46,WNW,298,0.0,5.0,73,0.00,,,0.00,meteohub,2013-01-08 17:18:00,
2013-01-08 12:23:00,45.9,38.1,30.46,SW,232,2.0,5.0,74,0.00,,,0.00,meteohub,2013-01-08 17:23:00,
2013-01-08 12:28:00,45.9,38.1,30.46,WSW,253,0.0,5.0,74,0.00,,,0.00,meteohub,2013-01-08 17:28:00,
2013-01-08 12:33:00,46.0,38.5,30.46,WSW,253,0.0,8.0,75,0.00,,,0.00,meteohub,2013-01-08 17:33:00,
2013-01-08 12:38:00,46.0,38.3,30.46,West,264,1.0,8.0,74,0.00,,,0.00,meteohub,2013-01-08 17:38:00,
2013-01-08 12:43:00,46.2,38.7,30.45,South,184,2.0,4.0,75,0.00,,,0.00,meteohub,2013-01-08 17:43:00,
2013-01-08 12:48:00,46.2,38.7,30.45,West,267,0.0,3.0,75,0.00,,,0.00,meteohub,2013-01-08 17:48:00,
2013-01-08 12:53:00,46.6,39.0,30.45,WSW,250,0.0,3.0,75,0.00,,,0.00,meteohub,2013-01-08 17:53:00,
2013-01-08 12:58:00,46.8,38.8,30.44,WNW,292,0.0,3.0,74,0.00,,,0.00,meteohub,2013-01-08 17:58:00,
2013-01-08 13:03:00,47.1,39.2,30.45,WSW,255,1.0,2.0,74,0.00,,,0.00,meteohub,2013-01-08 18:03:00,
2013-01-08 13:08:00,46.9,39.0,30.44,WNW,299,1.0,3.0,74,0.00,,,0.00,meteohub,2013-01-08 18:08:00,
2013-01-08 13:13:00,46.9,39.0,30.44,West,277,0.0,3.0,74,0.00,,,0.00,meteohub,2013-01-08 18:13:00,
2013-01-08 13:18:00,46.9,38.7,30.44,WSW,256,2.0,3.0,73,0.00,,,0.00,meteohub,2013-01-08 18:18:00,
2013-01-08 13:23:00,46.9,39.0,30.44,SSW,192,2.0,3.0,74,0.00,,,0.00,meteohub,2013-01-08 18:23:00,
2013-01-08 13:28:00,46.9,39.4,30.44,West,269,3.0,3.0,75,0.00,,,0.00,meteohub,2013-01-08 18:28:00,
2013-01-08 13:33:00,46.9,39.4,30.44,WNW,303,2.0,4.0,75,0.00,,,0.00,meteohub,2013-01-08 18:33:00,
2013-01-08 13:38:00,46.8,39.2,30.43,West,273,1.0,5.0,75,0.00,,,0.00,meteohub,2013-01-08 18:38:00,
2013-01-08 13:43:00,46.9,39.4,30.43,WSW,243,0.0,5.0,75,0.00,,,0.00,meteohub,2013-01-08 18:43:00,
2013-01-08 13:48:00,46.9,39.7,30.43,WNW,288,2.0,3.0,76,0.00,,,0.00,meteohub,2013-01-08 18:48:00,
2013-01-08 13:53:00,46.9,39.4,30.42,West,268,0.0,3.0,75,0.00,,,0.00,meteohub,2013-01-08 18:53:00,
2013-01-08 13:58:00,47.1,39.2,30.42,WSW,238,1.0,3.0,74,0.00,,,0.00,meteohub,2013-01-08 18:58:00,
2013-01-08 14:03:00,47.1,39.2,30.42,WNW,294,0.0,3.0,74,0.00,,,0.00,meteohub,2013-01-08 19:03:00,
2013-01-08 14:08:00,47.5,39.6,30.42,WSW,240,1.0,3.0,74,0.00,,,0.00,meteohub,2013-01-08 19:08:00,
2013-01-08 14:13:00,47.8,39.9,30.42,NW,314,2.0,3.0,74,0.00,,,0.00,meteohub,2013-01-08 19:13:00,
2013-01-08 14:18:00,47.8,39.6,30.42,North,358,0.0,3.0,73,0.00,,,0.00,meteohub,2013-01-08 19:18:00,
2013-01-08 14:23:00,48.0,40.5,30.42,WNW,294,2.0,3.0,75,0.00,,,0.00,meteohub,2013-01-08 19:23:00,
2013-01-08 14:28:00,48.0,40.8,30.42,West,271,4.0,4.0,76,0.00,,,0.00,meteohub,2013-01-08 19:28:00,
2013-01-08 14:33:00,48.2,41.4,30.42,WSW,257,2.0,3.0,77,0.00,,,0.00,meteohub,2013-01-08 19:33:00,
2013-01-08 14:38:00,48.4,41.9,30.41,WSW,245,1.0,4.0,78,0.00,,,0.00,meteohub,2013-01-08 19:38:00,
2013-01-08 14:43:00,48.4,41.5,30.41,WNW,293,2.0,4.0,77,0.00,,,0.00,meteohub,2013-01-08 19:43:00,
2013-01-08 14:48:00,48.6,42.1,30.42,WNW,284,2.0,4.0,78,0.00,,,0.00,meteohub,2013-01-08 19:48:00,
2013-01-08 14:54:00,48.6,41.7,30.42,WNW,291,1.0,4.0,77,0.00,,,0.00,meteohub,2013-01-08 19:54:00,
2013-01-08 14:59:00,48.7,42.4,30.41,WSW,238,6.0,6.0,79,0.00,,,0.00,meteohub,2013-01-08 19:59:00,
2013-01-08 15:04:00,48.7,42.8,30.41,North,10,1.0,9.0,80,0.00,,,0.00,meteohub,2013-01-08 20:04:00,
2013-01-08 15:09:00,48.4,42.8,30.41,WSW,255,6.0,9.0,81,0.00,,,0.00,meteohub,2013-01-08 20:09:00,
2013-01-08 15:14:00,48.0,42.8,30.42,WSW,248,2.0,9.0,82,0.00,,,0.00,meteohub,2013-01-08 20:14:00,
2013-01-08 15:19:00,47.7,42.1,30.41,West,264,0.0,7.0,81,0.00,,,0.00,meteohub,2013-01-08 20:19:00,
2013-01-08 15:24:00,47.7,42.8,30.42,WSW,245,3.0,7.0,83,0.00,,,0.00,meteohub,2013-01-08 20:24:00,
2013-01-08 15:29:00,47.5,42.6,30.42,WNW,288,1.0,7.0,83,0.00,,,0.00,meteohub,2013-01-08 20:29:00,
2013-01-08 15:34:00,47.8,42.6,30.43,WSW,239,3.0,7.0,82,0.00,,,0.00,meteohub,2013-01-08 20:34:00,
2013-01-08 15:39:00,47.8,42.6,30.43,SW,228,0.0,7.0,82,0.00,,,0.00,meteohub,2013-01-08 20:39:00,
2013-01-08 15:44:00,47.8,42.3,30.42,SW,228,3.0,6.0,81,0.00,,,0.00,meteohub,2013-01-08 20:44:00,
2013-01-08 15:49:00,47.5,42.3,30.42,WSW,257,2.0,6.0,82,0.00,,,0.00,meteohub,2013-01-08 20:49:00,
2013-01-08 15:54:00,47.5,42.3,30.43,SSW,203,2.0,7.0,82,0.00,,,0.00,meteohub,2013-01-08 20:54:00,
2013-01-08 15:59:00,47.3,42.1,30.43,WSW,248,2.0,7.0,82,0.00,,,0.00,meteohub,2013-01-08 20:59:00,
2013-01-08 16:04:00,47.1,42.3,30.43,WNW,284,0.0,7.0,83,0.00,,,0.00,meteohub,2013-01-08 21:04:00,
2013-01-08 16:09:00,46.9,41.7,30.42,West,262,0.0,7.0,82,0.00,,,0.00,meteohub,2013-01-08 21:09:00,
2013-01-08 16:14:00,46.9,41.7,30.42,SW,228,1.0,6.0,82,0.00,,,0.00,meteohub,2013-01-08 21:14:00,
2013-01-08 16:19:00,46.8,41.9,30.42,SSE,159,1.0,5.0,83,0.00,,,0.00,meteohub,2013-01-08 21:19:00,
2013-01-08 16:24:00,46.8,41.9,30.42,South,174,3.0,5.0,83,0.00,,,0.00,meteohub,2013-01-08 21:24:00,
2013-01-08 16:29:00,46.8,41.5,30.42,WSW,255,1.0,5.0,82,0.00,,,0.00,meteohub,2013-01-08 21:29:00,
2013-01-08 16:34:00,47.1,41.9,30.42,SSW,205,1.0,4.0,82,0.00,,,0.00,meteohub,2013-01-08 21:34:00,
2013-01-08 16:39:00,47.5,42.3,30.41,West,274,1.0,5.0,82,0.00,,,0.00,meteohub,2013-01-08 21:39:00,
2013-01-08 16:44:00,47.8,42.3,30.41,NW,311,0.0,5.0,81,0.00,,,0.00,meteohub,2013-01-08 21:44:00,
2013-01-08 16:49:00,47.8,41.9,30.41,SSW,203,3.0,5.0,80,0.00,,,0.00,meteohub,2013-01-08 21:49:00,
2013-01-08 16:54:00,47.8,41.9,30.42,South,188,2.0,5.0,80,0.00,,,0.00,meteohub,2013-01-08 21:54:00,
2013-01-08 16:59:00,48.2,42.3,30.42,West,263,2.0,5.0,80,0.00,,,0.00,meteohub,2013-01-08 21:59:00,
2013-01-08 17:04:00,48.6,42.3,30.41,West,264,0.0,5.0,79,0.00,,,0.00,meteohub,2013-01-08 22:04:00,
2013-01-08 17:09:00,48.4,42.3,30.42,SSE,168,2.0,4.0,79,0.00,,,0.00,meteohub,2013-01-08 22:09:00,
2013-01-08 17:14:00,47.8,41.9,30.41,WSW,257,0.0,4.0,80,0.00,,,0.00,meteohub,2013-01-08 22:14:00,
2013-01-08 17:19:00,47.3,41.7,30.41,SW,217,0.0,3.0,81,0.00,,,0.00,meteohub,2013-01-08 22:19:00,
2013-01-08 17:24:00,46.9,41.4,30.41,SW,218,0.0,3.0,81,0.00,,,0.00,meteohub,2013-01-08 22:24:00,
2013-01-08 17:29:00,46.4,41.2,30.42,SW,217,0.0,3.0,82,0.00,,,0.00,meteohub,2013-01-08 22:29:00,
2013-01-08 17:34:00,45.9,41.0,30.42,SW,219,0.0,3.0,83,0.00,,,0.00,meteohub,2013-01-08 22:34:00,
2013-01-08 17:39:00,45.1,40.6,30.43,SW,218,0.0,3.0,84,0.00,,,0.00,meteohub,2013-01-08 22:39:00,
2013-01-08 17:44:00,44.8,40.5,30.43,SW,218,0.0,0.0,85,0.00,,,0.00,meteohub,2013-01-08 22:44:00,
2013-01-08 17:49:00,44.2,40.3,30.43,SW,218,0.0,0.0,86,0.00,,,0.00,meteohub,2013-01-08 22:49:00,
2013-01-08 17:54:00,44.1,40.5,30.42,South,184,0.0,0.0,87,0.00,,,0.00,meteohub,2013-01-08 22:54:00,
2013-01-08 17:59:00,43.7,40.5,30.42,South,184,0.0,0.0,88,0.00,,,0.00,meteohub,2013-01-08 22:59:00,
2013-01-08 18:04:00,43.3,40.1,30.42,South,184,0.0,0.0,88,0.00,,,0.00,meteohub,2013-01-08 23:04:00,
2013-01-08 18:10:00,43.2,40.1,30.42,South,184,0.0,0.0,89,0.00,,,0.00,meteohub,2013-01-08 23:10:00,
2013-01-08 18:15:00,42.8,39.7,30.43,South,184,0.0,0.0,89,0.00,,,0.00,meteohub,2013-01-08 23:15:00,
2013-01-08 18:20:00,42.4,39.4,30.43,South,184,0.0,0.0,89,0.00,,,0.00,meteohub,2013-01-08 23:20:00,
2013-01-08 18:25:00,42.3,39.7,30.43,South,186,0.0,0.0,91,0.00,,,0.00,meteohub,2013-01-08 23:25:00,
2013-01-08 18:30:00,42.3,40.1,30.43,South,187,0.0,0.0,92,0.00,,,0.00,meteohub,2013-01-08 23:30:00,
2013-01-08 18:35:00,42.3,39.7,30.43,South,187,0.0,0.0,91,0.00,,,0.00,meteohub,2013-01-08 23:35:00,
2013-01-08 18:40:00,42.3,40.1,30.43,SE,135,0.0,0.0,92,0.00,,,0.00,meteohub,2013-01-08 23:40:00,
2013-01-08 18:45:00,42.3,40.1,30.43,SE,134,0.0,1.0,92,0.00,,,0.00,meteohub,2013-01-08 23:45:00,
2013-01-08 18:50:00,42.1,39.6,30.43,SE,135,0.0,1.0,91,0.00,,,0.00,meteohub,2013-01-08 23:50:00,
2013-01-08 18:55:00,41.5,39.4,30.43,SE,134,0.0,1.0,92,0.00,,,0.00,meteohub,2013-01-08 23:55:00,
2013-01-08 19:00:00,41.5,39.7,30.44,SW,229,0.0,1.0,93,0.00,,,0.00,meteohub,2013-01-09 00:00:00,
2013-01-08 19:05:00,41.9,40.3,30.44,SSW,205,0.0,0.0,94,0.00,,,0.00,meteohub,2013-01-09 00:05:00,
2013-01-08 19:10:00,42.4,40.8,30.44,WNW,300,0.0,1.0,94,0.00,,,0.00,meteohub,2013-01-09 00:10:00,
2013-01-08 19:15:00,42.4,40.8,30.45,NW,311,0.0,3.0,94,0.00,,,0.00,meteohub,2013-01-09 00:15:00,
2013-01-08 19:20:00,42.6,41.0,30.45,SW,235,0.0,3.0,94,0.00,,,0.00,meteohub,2013-01-09 00:20:00,
2013-01-08 19:25:00,42.4,40.6,30.45,SW,235,0.0,1.0,93,0.00,,,0.00,meteohub,2013-01-09 00:25:00,
2013-01-08 19:30:00,42.4,40.8,30.45,SW,235,0.0,1.0,94,0.00,,,0.00,meteohub,2013-01-09 00:30:00,
2013-01-08 19:35:00,43.2,41.9,30.45,WSW,255,0.0,1.0,95,0.00,,,0.00,meteohub,2013-01-09 00:35:00,
2013-01-08 19:40:00,43.5,42.3,30.45,WSW,255,0.0,2.0,95,0.00,,,0.00,meteohub,2013-01-09 00:40:00,
2013-01-08 19:45:00,43.9,42.6,30.45,SW,236,0.0,2.0,95,0.00,,,0.00,meteohub,2013-01-09 00:45:00,
2013-01-08 19:50:00,43.9,42.3,30.45,WSW,237,0.0,1.0,94,0.00,,,0.00,meteohub,2013-01-09 00:50:00,
2013-01-08 19:55:00,43.7,41.7,30.45,SW,236,0.0,1.0,93,0.00,,,0.00,meteohub,2013-01-09 00:55:00,
2013-01-08 20:00:00,43.5,41.9,30.46,SW,236,0.0,0.0,94,0.00,,,0.00,meteohub,2013-01-09 01:00:00,
2013-01-08 20:05:00,44.1,42.8,30.46,WSW,240,0.0,1.0,95,0.00,,,0.00,meteohub,2013-01-09 01:05:00,
2013-01-08 20:10:00,44.1,42.4,30.46,WNW,283,0.0,1.0,94,0.00,,,0.00,meteohub,2013-01-09 01:10:00,
2013-01-08 20:15:00,43.7,42.1,30.45,WNW,283,0.0,1.0,94,0.00,,,0.00,meteohub,2013-01-09 01:15:00,
2013-01-08 20:20:00,43.3,41.7,30.45,WNW,283,0.0,0.0,94,0.00,,,0.00,meteohub,2013-01-09 01:20:00,
2013-01-08 20:25:00,43.3,41.7,30.45,SW,215,0.0,1.0,94,0.00,,,0.00,meteohub,2013-01-09 01:25:00,
2013-01-08 20:30:00,43.2,41.5,30.44,SW,215,0.0,1.0,94,0.00,,,0.00,meteohub,2013-01-09 01:30:00,
2013-01-08 20:35:00,43.2,41.9,30.45,SW,215,0.0,1.0,95,0.00,,,0.00,meteohub,2013-01-09 01:35:00,
2013-01-08 20:40:00,43.3,42.3,30.45,WSW,257,1.0,3.0,96,0.00,,,0.00,meteohub,2013-01-09 01:40:00,
2013-01-08 20:45:00,43.9,42.8,30.45,WSW,255,0.0,3.0,96,0.00,,,0.00,meteohub,2013-01-09 01:45:00,
2013-01-08 20:50:00,44.2,43.2,30.45,WSW,237,0.0,3.0,96,0.00,,,0.00,meteohub,2013-01-09 01:50:00,
2013-01-08 20:55:00,44.2,43.2,30.45,WSW,237,0.0,2.0,96,0.00,,,0.00,meteohub,2013-01-09 01:55:00,
2013-01-08 21:00:00,44.1,42.8,30.44,NE,51,1.0,1.0,95,0.00,,,0.00,meteohub,2013-01-09 02:00:00,
2013-01-08 21:05:00,43.9,42.6,30.44,NE,36,0.0,1.0,95,0.00,,,0.00,meteohub,2013-01-09 02:05:00,
2013-01-08 21:10:00,43.7,42.4,30.45,NE,36,0.0,2.0,95,0.00,,,0.00,meteohub,2013-01-09 02:10:00,
2013-01-08 21:15:00,43.7,42.4,30.45,NE,36,0.0,2.0,95,0.00,,,0.00,meteohub,2013-01-09 02:15:00,
2013-01-08 21:20:00,44.1,43.0,30.45,NE,36,0.0,0.0,96,0.00,,,0.00,meteohub,2013-01-09 02:20:00,
2013-01-08 21:26:00,44.8,44.1,30.45,West,269,0.0,2.0,97,0.00,,,0.00,meteohub,2013-01-09 02:26:00,
2013-01-08 21:31:00,44.8,43.7,30.45,NNE,18,0.0,2.0,96,0.00,,,0.00,meteohub,2013-01-09 02:31:00,
2013-01-08 21:36:00,45.1,44.4,30.45,West,264,0.0,2.0,97,0.00,,,0.00,meteohub,2013-01-09 02:36:00,
2013-01-08 21:41:00,45.5,44.8,30.45,WSW,240,0.0,2.0,97,0.00,,,0.00,meteohub,2013-01-09 02:41:00,
2013-01-08 21:46:00,45.9,45.1,30.46,WSW,250,0.0,2.0,97,0.00,,,0.00,meteohub,2013-01-09 02:46:00,
2013-01-08 21:51:00,46.0,45.3,30.46,West,277,0.0,2.0,97,0.00,,,0.00,meteohub,2013-01-09 02:51:00,
2013-01-08 21:56:00,46.2,45.5,30.45,West,267,0.0,2.0,97,0.00,,,0.00,meteohub,2013-01-09 02:56:00,
2013-01-08 22:01:00,46.4,45.3,30.45,West,266,0.0,3.0,96,0.00,,,0.00,meteohub,2013-01-09 03:01:00,
2013-01-08 22:06:00,46.6,45.5,30.46,WSW,240,0.0,3.0,96,0.00,,,0.00,meteohub,2013-01-09 03:06:00,
2013-01-08 22:11:00,46.8,45.7,30.46,West,269,0.0,2.0,96,0.00,,,0.00,meteohub,2013-01-09 03:11:00,
2013-01-08 22:16:00,46.8,45.7,30.45,West,266,0.0,2.0,96,0.00,,,0.00,meteohub,2013-01-09 03:16:00,
2013-01-08 22:21:00,46.8,45.7,30.45,SSW,205,0.0,2.0,96,0.00,,,0.00,meteohub,2013-01-09 03:21:00,
2013-01-08 22:26:00,46.8,45.7,30.45,SSE,166,0.0,2.0,96,0.00,,,0.00,meteohub,2013-01-09 03:26:00,
2013-01-08 22:31:00,46.8,45.7,30.45,NW,321,0.0,1.0,96,0.00,,,0.00,meteohub,2013-01-09 03:31:00,
2013-01-08 22:36:00,46.2,44.8,30.45,ENE,58,0.0,1.0,95,0.00,,,0.00,meteohub,2013-01-09 03:36:00,
2013-01-08 22:41:00,46.0,44.6,30.45,ENE,58,0.0,1.0,95,0.00,,,0.00,meteohub,2013-01-09 03:41:00,
2013-01-08 22:46:00,45.9,44.8,30.45,ENE,58,0.0,1.0,96,0.00,,,0.00,meteohub,2013-01-09 03:46:00,
2013-01-08 22:51:00,45.9,44.8,30.46,ENE,58,0.0,1.0,96,0.00,,,0.00,meteohub,2013-01-09 03:51:00,
2013-01-08 22:56:00,46.0,45.0,30.46,SW,229,1.0,0.0,96,0.00,,,0.00,meteohub,2013-01-09 03:56:00,
2013-01-08 23:01:00,46.0,45.0,30.46,West,271,0.0,1.0,96,0.00,,,0.00,meteohub,2013-01-09 04:01:00,
2013-01-08 23:06:00,46.2,45.1,30.46,SSW,198,0.0,1.0,96,0.00,,,0.00,meteohub,2013-01-09 04:06:00,
2013-01-08 23:11:00,46.2,45.1,30.45,SSW,198,0.0,1.0,96,0.00,,,0.00,meteohub,2013-01-09 04:11:00,
2013-01-08 23:16:00,46.2,45.1,30.45,SSW,198,0.0,1.0,96,0.00,,,0.00,meteohub,2013-01-09 04:16:00,
2013-01-08 23:21:00,46.2,45.1,30.45,SSW,198,0.0,1.0,96,0.00,,,0.00,meteohub,2013-01-09 04:21:00,
2013-01-08 23:26:00,46.4,45.3,30.45,SSW,198,0.0,0.0,96,0.00,,,0.00,meteohub,2013-01-09 04:26:00,
2013-01-08 23:31:00,46.2,45.1,30.45,SSW,198,0.0,0.0,96,0.00,,,0.00,meteohub,2013-01-09 04:31:00,
2013-01-08 23:36:00,46.2,45.1,30.45,SSW,198,0.0,0.0,96,0.00,,,0.00,meteohub,2013-01-09 04:36:00,
2013-01-08 23:41:00,46.2,45.1,30.45,SSW,198,0.0,0.0,96,0.00,,,0.00,meteohub,2013-01-09 04:41:00,
2013-01-08 23:46:00,46.0,45.0,30.45,SSW,198,0.0,0.0,96,0.00,,,0.00,meteohub,2013-01-09 04:46:00,
2013-01-08 23:51:00,46.0,45.0,30.45,SSW,198,0.0,0.0,96,0.00,,,0.00,meteohub,2013-01-09 04:51:00,
2013-01-08 23:56:00,46.0,45.3,30.44,SSW,198,0.0,0.0,97,0.00,,,0.00,meteohub,2013-01-09 04:56:00,